sensor_id;sensor_type;location;lat;lon;timestamp;temperature;humidity
62991;DHT22;49084;48.204;16.202;2022-12-22T00:01:10;0.60;99.90
62991;DHT22;49084;48.204;16.202;2022-12-22T00:03:54;0.60;99.90
62991;DHT22;49084;48.204;16.202;2022-12-22T00:06:39;0.60;99.90
62991;DHT22;49084;48.204;16.202;2022-12-22T00:09:22;0.50;99.90
62991;DHT22;49084;48.204;16.202;2022-12-22T00:12:09;0.60;99.90
62991;DHT22;49084;48.204;16.202;2022-12-22T00:14:55;0.60;99.90
62991;DHT22;49084;48.204;16.202;2022-12-22T00:17:39;0.60;99.90
62991;DHT22;49084;48.204;16.202;2022-12-22T00:20:23;0.60;99.90
62991;DHT22;49084;48.204;16.202;2022-12-22T00:23:09;0.60;99.90
62991;DHT22;49084;48.204;16.202;2022-12-22T00:25:54;0.60;99.90
62991;DHT22;49084;48.204;16.202;2022-12-22T00:28:38;0.60;99.90
62991;DHT22;49084;48.204;16.202;2022-12-22T00:31:23;0.60;99.90
62991;DHT22;49084;48.204;16.202;2022-12-22T00:34:15;0.50;99.90
62991;DHT22;49084;48.204;16.202;2022-12-22T00:37:00;0.50;99.90
62991;DHT22;49084;48.204;16.202;2022-12-22T00:39:44;0.50;99.90
62991;DHT22;49084;48.204;16.202;2022-12-22T00:42:29;0.50;99.90
62991;DHT22;49084;48.204;16.202;2022-12-22T00:45:13;0.60;99.90
62991;DHT22;49084;48.204;16.202;2022-12-22T00:47:58;0.60;99.90
62991;DHT22;49084;48.204;16.202;2022-12-22T00:50:42;0.60;99.90
62991;DHT22;49084;48.204;16.202;2022-12-22T00:53:26;0.60;99.90
62991;DHT22;49084;48.204;16.202;2022-12-22T00:56:11;0.50;99.90
62991;DHT22;49084;48.204;16.202;2022-12-22T00:58:56;0.50;99.90
62991;DHT22;49084;48.204;16.202;2022-12-22T01:01:41;0.50;99.90
62991;DHT22;49084;48.204;16.202;2022-12-22T01:04:25;0.50;99.90
62991;DHT22;49084;48.204;16.202;2022-12-22T01:07:14;0.60;99.90
62991;DHT22;49084;48.204;16.202;2022-12-22T01:09:59;0.60;99.90
62991;DHT22;49084;48.204;16.202;2022-12-22T01:12:44;0.60;99.90
62991;DHT22;49084;48.204;16.202;2022-12-22T01:15:30;0.60;99.90
62991;DHT22;49084;48.204;16.202;2022-12-22T01:18:15;0.60;99.90
62991;DHT22;49084;48.204;16.202;2022-12-22T01:20:59;0.60;99.90
62991;DHT22;49084;48.204;16.202;2022-12-22T01:23:44;0.60;99.90
62991;DHT22;49084;48.204;16.202;2022-12-22T01:26:28;0.60;99.90
62991;DHT22;49084;48.204;16.202;2022-12-22T01:29:12;0.60;99.90
62991;DHT22;49084;48.204;16.202;2022-12-22T01:31:56;0.60;99.90
62991;DHT22;49084;48.204;16.202;2022-12-22T01:34:41;0.60;99.90
62991;DHT22;49084;48.204;16.202;2022-12-22T01:37:25;0.60;99.90
62991;DHT22;49084;48.204;16.202;2022-12-22T01:40:22;0.60;99.90
62991;DHT22;49084;48.204;16.202;2022-12-22T01:43:23;0.50;99.90
62991;DHT22;49084;48.204;16.202;2022-12-22T01:46:34;0.50;99.90
62991;DHT22;49084;48.204;16.202;2022-12-22T01:49:28;0.50;99.90
62991;DHT22;49084;48.204;16.202;2022-12-22T01:52:14;0.50;99.90
62991;DHT22;49084;48.204;16.202;2022-12-22T01:55:03;0.50;99.90
62991;DHT22;49084;48.204;16.202;2022-12-22T01:57:49;0.50;99.90
62991;DHT22;49084;48.204;16.202;2022-12-22T02:00:33;0.50;99.90
62991;DHT22;49084;48.204;16.202;2022-12-22T02:03:19;0.50;99.90
62991;DHT22;49084;48.204;16.202;2022-12-22T02:06:22;0.50;99.90
62991;DHT22;49084;48.204;16.202;2022-12-22T02:12:38;0.50;99.90
62991;DHT22;49084;48.204;16.202;2022-12-22T02:15:35;0.50;99.90
62991;DHT22;49084;48.204;16.202;2022-12-22T02:18:33;0.50;99.90
62991;DHT22;49084;48.204;16.202;2022-12-22T02:21:23;0.50;99.90
62991;DHT22;49084;48.204;16.202;2022-12-22T02:27:35;0.50;99.90
62991;DHT22;49084;48.204;16.202;2022-12-22T02:30:20;0.50;99.90
62991;DHT22;49084;48.204;16.202;2022-12-22T02:33:05;0.50;99.90
62991;DHT22;49084;48.204;16.202;2022-12-22T02:45:20;0.60;99.90
62991;DHT22;49084;48.204;16.202;2022-12-22T02:51:03;0.60;99.90
62991;DHT22;49084;48.204;16.202;2022-12-22T02:53:52;0.60;99.90
62991;DHT22;49084;48.204;16.202;2022-12-22T02:56:38;0.60;99.90
62991;DHT22;49084;48.204;16.202;2022-12-22T02:59:23;0.60;99.90
62991;DHT22;49084;48.204;16.202;2022-12-22T03:02:07;0.50;99.90
62991;DHT22;49084;48.204;16.202;2022-12-22T03:04:51;0.50;99.90
62991;DHT22;49084;48.204;16.202;2022-12-22T03:07:35;0.50;99.90
62991;DHT22;49084;48.204;16.202;2022-12-22T03:10:19;0.50;99.90
62991;DHT22;49084;48.204;16.202;2022-12-22T03:13:04;0.40;99.90
62991;DHT22;49084;48.204;16.202;2022-12-22T03:15:47;0.40;99.90
62991;DHT22;49084;48.204;16.202;2022-12-22T03:18:32;0.40;99.90
62991;DHT22;49084;48.204;16.202;2022-12-22T03:21:16;0.40;99.90
62991;DHT22;49084;48.204;16.202;2022-12-22T03:24:00;0.30;99.90
62991;DHT22;49084;48.204;16.202;2022-12-22T03:26:44;0.30;99.90
62991;DHT22;49084;48.204;16.202;2022-12-22T03:29:10;0.30;99.90
62991;DHT22;49084;48.204;16.202;2022-12-22T03:31:35;0.40;99.90
62991;DHT22;49084;48.204;16.202;2022-12-22T03:34:01;0.30;99.90
62991;DHT22;49084;48.204;16.202;2022-12-22T03:36:27;0.30;99.90
62991;DHT22;49084;48.204;16.202;2022-12-22T03:38:52;0.30;99.90
62991;DHT22;49084;48.204;16.202;2022-12-22T03:41:18;0.30;99.90
62991;DHT22;49084;48.204;16.202;2022-12-22T03:44:02;0.30;99.90
62991;DHT22;49084;48.204;16.202;2022-12-22T03:46:46;0.30;99.90
62991;DHT22;49084;48.204;16.202;2022-12-22T03:49:12;0.20;99.90
62991;DHT22;49084;48.204;16.202;2022-12-22T03:51:48;0.20;99.90
62991;DHT22;49084;48.204;16.202;2022-12-22T03:54:16;0.20;99.90
62991;DHT22;49084;48.204;16.202;2022-12-22T03:56:43;0.20;99.90
62991;DHT22;49084;48.204;16.202;2022-12-22T03:59:09;0.30;99.90
62991;DHT22;49084;48.204;16.202;2022-12-22T04:01:45;0.30;99.90
62991;DHT22;49084;48.204;16.202;2022-12-22T04:04:12;0.30;99.90
62991;DHT22;49084;48.204;16.202;2022-12-22T04:06:38;0.30;99.90
62991;DHT22;49084;48.204;16.202;2022-12-22T04:09:04;0.30;99.90
62991;DHT22;49084;48.204;16.202;2022-12-22T04:11:30;0.30;99.90
62991;DHT22;49084;48.204;16.202;2022-12-22T04:14:15;0.30;99.90
62991;DHT22;49084;48.204;16.202;2022-12-22T04:16:40;0.30;99.90
62991;DHT22;49084;48.204;16.202;2022-12-22T04:19:06;0.30;99.90
62991;DHT22;49084;48.204;16.202;2022-12-22T04:21:33;0.20;99.90
62991;DHT22;49084;48.204;16.202;2022-12-22T04:23:59;0.20;99.90
62991;DHT22;49084;48.204;16.202;2022-12-22T04:26:25;0.20;99.90
62991;DHT22;49084;48.204;16.202;2022-12-22T04:28:51;0.20;99.90
62991;DHT22;49084;48.204;16.202;2022-12-22T04:31:17;0.20;99.90
62991;DHT22;49084;48.204;16.202;2022-12-22T04:33:43;0.20;99.90
62991;DHT22;49084;48.204;16.202;2022-12-22T04:36:09;0.10;99.90
62991;DHT22;49084;48.204;16.202;2022-12-22T04:38:35;0.20;99.90
62991;DHT22;49084;48.204;16.202;2022-12-22T04:41:01;0.10;99.90
62991;DHT22;49084;48.204;16.202;2022-12-22T04:43:27;0.20;99.90
62991;DHT22;49084;48.204;16.202;2022-12-22T04:45:53;0.20;99.90
62991;DHT22;49084;48.204;16.202;2022-12-22T04:48:20;0.10;99.90
62991;DHT22;49084;48.204;16.202;2022-12-22T04:50:48;0.10;99.90
62991;DHT22;49084;48.204;16.202;2022-12-22T04:53:14;0.00;99.90
62991;DHT22;49084;48.204;16.202;2022-12-22T04:55:47;0.00;99.90
62991;DHT22;49084;48.204;16.202;2022-12-22T04:58:13;-0.10;99.90
62991;DHT22;49084;48.204;16.202;2022-12-22T05:00:39;-0.10;99.90
62991;DHT22;49084;48.204;16.202;2022-12-22T05:03:06;-0.10;99.90
62991;DHT22;49084;48.204;16.202;2022-12-22T05:05:32;0.20;99.90
62991;DHT22;49084;48.204;16.202;2022-12-22T05:07:58;-0.10;99.90
62991;DHT22;49084;48.204;16.202;2022-12-22T05:10:25;0.00;99.90
62991;DHT22;49084;48.204;16.202;2022-12-22T05:12:51;0.00;99.90
62991;DHT22;49084;48.204;16.202;2022-12-22T05:15:29;0.00;99.90
62991;DHT22;49084;48.204;16.202;2022-12-22T05:17:57;-0.10;99.90
62991;DHT22;49084;48.204;16.202;2022-12-22T05:20:23;0.00;99.90
62991;DHT22;49084;48.204;16.202;2022-12-22T05:22:49;0.00;99.90
62991;DHT22;49084;48.204;16.202;2022-12-22T05:25:15;0.00;99.90
62991;DHT22;49084;48.204;16.202;2022-12-22T05:27:45;0.00;99.90
62991;DHT22;49084;48.204;16.202;2022-12-22T05:30:11;0.00;99.90
62991;DHT22;49084;48.204;16.202;2022-12-22T05:32:38;0.10;99.90
62991;DHT22;49084;48.204;16.202;2022-12-22T05:35:04;0.10;99.90
62991;DHT22;49084;48.204;16.202;2022-12-22T05:37:30;0.10;99.90
62991;DHT22;49084;48.204;16.202;2022-12-22T05:39:56;0.00;99.90
62991;DHT22;49084;48.204;16.202;2022-12-22T05:42:21;0.00;99.90
62991;DHT22;49084;48.204;16.202;2022-12-22T05:45:14;0.00;99.90
62991;DHT22;49084;48.204;16.202;2022-12-22T05:47:42;0.00;99.90
62991;DHT22;49084;48.204;16.202;2022-12-22T05:50:09;0.00;99.90
62991;DHT22;49084;48.204;16.202;2022-12-22T05:52:35;0.00;99.90
62991;DHT22;49084;48.204;16.202;2022-12-22T05:55:01;0.00;99.90
62991;DHT22;49084;48.204;16.202;2022-12-22T05:57:28;0.00;99.90
62991;DHT22;49084;48.204;16.202;2022-12-22T05:59:53;0.00;99.90
62991;DHT22;49084;48.204;16.202;2022-12-22T06:02:19;0.00;99.90
62991;DHT22;49084;48.204;16.202;2022-12-22T06:04:44;0.00;99.90
62991;DHT22;49084;48.204;16.202;2022-12-22T06:07:10;0.00;99.90
62991;DHT22;49084;48.204;16.202;2022-12-22T06:09:36;0.00;99.90
62991;DHT22;49084;48.204;16.202;2022-12-22T06:12:02;0.00;99.90
62991;DHT22;49084;48.204;16.202;2022-12-22T06:14:28;0.00;99.90
62991;DHT22;49084;48.204;16.202;2022-12-22T06:16:53;0.00;99.90
62991;DHT22;49084;48.204;16.202;2022-12-22T06:19:19;0.00;99.90
62991;DHT22;49084;48.204;16.202;2022-12-22T06:21:45;0.00;99.90
62991;DHT22;49084;48.204;16.202;2022-12-22T06:24:11;0.00;99.90
62991;DHT22;49084;48.204;16.202;2022-12-22T06:26:36;0.10;99.90
62991;DHT22;49084;48.204;16.202;2022-12-22T06:29:02;0.10;99.90
62991;DHT22;49084;48.204;16.202;2022-12-22T06:31:27;0.10;99.90
62991;DHT22;49084;48.204;16.202;2022-12-22T06:33:53;0.10;99.90
62991;DHT22;49084;48.204;16.202;2022-12-22T06:36:19;0.10;99.90
62991;DHT22;49084;48.204;16.202;2022-12-22T06:38:44;0.10;99.90
62991;DHT22;49084;48.204;16.202;2022-12-22T06:41:10;0.10;99.90
62991;DHT22;49084;48.204;16.202;2022-12-22T06:43:36;0.10;99.90
62991;DHT22;49084;48.204;16.202;2022-12-22T06:46:01;0.10;99.90
62991;DHT22;49084;48.204;16.202;2022-12-22T06:48:27;0.10;99.90
62991;DHT22;49084;48.204;16.202;2022-12-22T06:50:57;0.10;99.90
62991;DHT22;49084;48.204;16.202;2022-12-22T06:53:24;0.10;99.90
62991;DHT22;49084;48.204;16.202;2022-12-22T06:55:50;0.10;99.90
62991;DHT22;49084;48.204;16.202;2022-12-22T06:58:15;0.10;99.90
62991;DHT22;49084;48.204;16.202;2022-12-22T07:00:41;0.10;99.90
62991;DHT22;49084;48.204;16.202;2022-12-22T07:03:08;0.10;99.90
62991;DHT22;49084;48.204;16.202;2022-12-22T07:05:33;0.10;99.90
62991;DHT22;49084;48.204;16.202;2022-12-22T07:07:59;0.10;99.90
62991;DHT22;49084;48.204;16.202;2022-12-22T07:10:25;0.10;99.90
62991;DHT22;49084;48.204;16.202;2022-12-22T07:13:09;0.10;99.90
62991;DHT22;49084;48.204;16.202;2022-12-22T07:15:47;0.10;99.90
62991;DHT22;49084;48.204;16.202;2022-12-22T07:18:13;0.10;99.90
62991;DHT22;49084;48.204;16.202;2022-12-22T07:20:39;0.10;99.90
62991;DHT22;49084;48.204;16.202;2022-12-22T07:23:04;0.10;99.90
62991;DHT22;49084;48.204;16.202;2022-12-22T07:25:30;0.20;99.90
62991;DHT22;49084;48.204;16.202;2022-12-22T07:27:56;0.20;99.90
62991;DHT22;49084;48.204;16.202;2022-12-22T07:30:21;0.20;99.90
62991;DHT22;49084;48.204;16.202;2022-12-22T07:32:47;0.30;99.90
62991;DHT22;49084;48.204;16.202;2022-12-22T07:35:12;0.30;99.90
62991;DHT22;49084;48.204;16.202;2022-12-22T07:37:38;0.30;99.90
62991;DHT22;49084;48.204;16.202;2022-12-22T07:40:04;0.30;99.90
62991;DHT22;49084;48.204;16.202;2022-12-22T07:42:30;0.30;99.90
62991;DHT22;49084;48.204;16.202;2022-12-22T07:45:12;0.30;99.90
62991;DHT22;49084;48.204;16.202;2022-12-22T07:47:39;0.20;99.90
62991;DHT22;49084;48.204;16.202;2022-12-22T07:50:05;0.20;99.90
62991;DHT22;49084;48.204;16.202;2022-12-22T07:53:10;0.20;99.90
62991;DHT22;49084;48.204;16.202;2022-12-22T07:55:35;0.30;99.90
62991;DHT22;49084;48.204;16.202;2022-12-22T07:58:01;0.30;99.90
62991;DHT22;49084;48.204;16.202;2022-12-22T08:00:27;0.30;99.90
62991;DHT22;49084;48.204;16.202;2022-12-22T08:02:54;0.30;99.90
62991;DHT22;49084;48.204;16.202;2022-12-22T08:05:22;0.30;99.90
62991;DHT22;49084;48.204;16.202;2022-12-22T08:07:49;0.30;99.90
62991;DHT22;49084;48.204;16.202;2022-12-22T08:10:15;0.30;99.90
62991;DHT22;49084;48.204;16.202;2022-12-22T08:12:41;0.30;99.90
62991;DHT22;49084;48.204;16.202;2022-12-22T08:15:08;0.30;99.90
62991;DHT22;49084;48.204;16.202;2022-12-22T08:17:35;0.30;99.90
62991;DHT22;49084;48.204;16.202;2022-12-22T08:20:01;0.40;99.90
62991;DHT22;49084;48.204;16.202;2022-12-22T08:22:27;0.40;99.90
62991;DHT22;49084;48.204;16.202;2022-12-22T08:24:55;0.40;99.90
62991;DHT22;49084;48.204;16.202;2022-12-22T08:27:31;0.40;99.90
62991;DHT22;49084;48.204;16.202;2022-12-22T08:30:03;0.40;99.90
62991;DHT22;49084;48.204;16.202;2022-12-22T08:32:29;0.40;99.90
62991;DHT22;49084;48.204;16.202;2022-12-22T08:34:54;0.50;99.90
62991;DHT22;49084;48.204;16.202;2022-12-22T08:37:22;0.50;99.90
62991;DHT22;49084;48.204;16.202;2022-12-22T08:39:53;0.50;99.90
62991;DHT22;49084;48.204;16.202;2022-12-22T08:42:20;0.50;99.90
62991;DHT22;49084;48.204;16.202;2022-12-22T08:44:47;0.60;99.90
62991;DHT22;49084;48.204;16.202;2022-12-22T08:47:18;0.50;99.90
62991;DHT22;49084;48.204;16.202;2022-12-22T08:49:43;0.60;99.90
62991;DHT22;49084;48.204;16.202;2022-12-22T08:52:09;0.60;99.90
62991;DHT22;49084;48.204;16.202;2022-12-22T08:54:35;0.60;99.90
62991;DHT22;49084;48.204;16.202;2022-12-22T08:57:00;0.50;99.90
62991;DHT22;49084;48.204;16.202;2022-12-22T08:59:26;0.60;99.90
62991;DHT22;49084;48.204;16.202;2022-12-22T09:01:51;0.60;99.90
62991;DHT22;49084;48.204;16.202;2022-12-22T09:04:19;0.60;99.90
62991;DHT22;49084;48.204;16.202;2022-12-22T09:06:46;0.60;99.90
62991;DHT22;49084;48.204;16.202;2022-12-22T09:09:12;0.60;99.90
62991;DHT22;49084;48.204;16.202;2022-12-22T09:11:39;0.60;99.90
62991;DHT22;49084;48.204;16.202;2022-12-22T09:14:05;0.60;99.90
62991;DHT22;49084;48.204;16.202;2022-12-22T09:16:32;0.60;99.90
62991;DHT22;49084;48.204;16.202;2022-12-22T09:18:58;0.70;99.90
62991;DHT22;49084;48.204;16.202;2022-12-22T09:21:24;0.70;99.90
62991;DHT22;49084;48.204;16.202;2022-12-22T09:23:50;0.70;99.90
62991;DHT22;49084;48.204;16.202;2022-12-22T09:26:18;0.70;99.90
62991;DHT22;49084;48.204;16.202;2022-12-22T09:28:44;0.70;99.90
62991;DHT22;49084;48.204;16.202;2022-12-22T09:31:10;0.70;99.90
62991;DHT22;49084;48.204;16.202;2022-12-22T09:33:36;0.70;99.90
62991;DHT22;49084;48.204;16.202;2022-12-22T09:36:11;0.70;99.90
62991;DHT22;49084;48.204;16.202;2022-12-22T09:38:38;0.70;99.90
62991;DHT22;49084;48.204;16.202;2022-12-22T09:43:57;0.80;99.90
62991;DHT22;49084;48.204;16.202;2022-12-22T09:46:30;0.80;99.90
62991;DHT22;49084;48.204;16.202;2022-12-22T09:48:57;0.80;99.90
62991;DHT22;49084;48.204;16.202;2022-12-22T09:51:23;0.80;99.90
62991;DHT22;49084;48.204;16.202;2022-12-22T09:53:58;0.80;99.90
62991;DHT22;49084;48.204;16.202;2022-12-22T09:56:26;0.80;99.90
62991;DHT22;49084;48.204;16.202;2022-12-22T09:58:52;0.80;99.90
62991;DHT22;49084;48.204;16.202;2022-12-22T10:01:32;0.80;99.90
62991;DHT22;49084;48.204;16.202;2022-12-22T10:07:05;0.80;99.90
62991;DHT22;49084;48.204;16.202;2022-12-22T10:09:36;0.80;99.90
62991;DHT22;49084;48.204;16.202;2022-12-22T10:12:05;0.80;99.90
62991;DHT22;49084;48.204;16.202;2022-12-22T10:14:34;0.90;99.90
62991;DHT22;49084;48.204;16.202;2022-12-22T10:17:30;0.90;99.90
62991;DHT22;49084;48.204;16.202;2022-12-22T10:23:14;1.10;99.90
62991;DHT22;49084;48.204;16.202;2022-12-22T10:28:24;1.00;99.90
62991;DHT22;49084;48.204;16.202;2022-12-22T10:33:36;1.00;99.90
62991;DHT22;49084;48.204;16.202;2022-12-22T10:36:04;1.00;99.90
62991;DHT22;49084;48.204;16.202;2022-12-22T10:38:35;1.10;99.90
62991;DHT22;49084;48.204;16.202;2022-12-22T10:41:13;1.10;99.90
62991;DHT22;49084;48.204;16.202;2022-12-22T10:44:10;1.20;99.90
62991;DHT22;49084;48.204;16.202;2022-12-22T10:46:47;1.30;99.90
62991;DHT22;49084;48.204;16.202;2022-12-22T10:49:26;1.30;99.90
62991;DHT22;49084;48.204;16.202;2022-12-22T10:54:36;1.30;99.90
62991;DHT22;49084;48.204;16.202;2022-12-22T11:02:22;1.30;99.90
62991;DHT22;49084;48.204;16.202;2022-12-22T11:04:50;1.40;99.90
62991;DHT22;49084;48.204;16.202;2022-12-22T11:07:16;1.40;99.90
62991;DHT22;49084;48.204;16.202;2022-12-22T11:09:42;1.40;99.90
62991;DHT22;49084;48.204;16.202;2022-12-22T11:13:04;1.40;99.90
62991;DHT22;49084;48.204;16.202;2022-12-22T11:18:05;1.40;99.90
62991;DHT22;49084;48.204;16.202;2022-12-22T11:21:03;1.40;99.90
62991;DHT22;49084;48.204;16.202;2022-12-22T11:23:48;1.40;99.90
62991;DHT22;49084;48.204;16.202;2022-12-22T11:26:31;1.50;99.90
62991;DHT22;49084;48.204;16.202;2022-12-22T11:32:29;1.50;99.90
62991;DHT22;49084;48.204;16.202;2022-12-22T11:38:02;1.60;99.90
62991;DHT22;49084;48.204;16.202;2022-12-22T11:40:40;1.60;99.90
62991;DHT22;49084;48.204;16.202;2022-12-22T11:43:33;1.60;99.90
62991;DHT22;49084;48.204;16.202;2022-12-22T11:49:28;1.60;99.90
62991;DHT22;49084;48.204;16.202;2022-12-22T11:52:51;1.60;99.90
62991;DHT22;49084;48.204;16.202;2022-12-22T11:55:34;1.70;99.90
62991;DHT22;49084;48.204;16.202;2022-12-22T12:00:57;1.60;99.90
62991;DHT22;49084;48.204;16.202;2022-12-22T12:15:35;1.70;99.90
62991;DHT22;49084;48.204;16.202;2022-12-22T12:29:35;1.70;99.90
62991;DHT22;49084;48.204;16.202;2022-12-22T12:34:37;1.80;99.90
62991;DHT22;49084;48.204;16.202;2022-12-22T12:37:32;1.80;99.90
62991;DHT22;49084;48.204;16.202;2022-12-22T12:42:42;1.80;99.90
62991;DHT22;49084;48.204;16.202;2022-12-22T12:45:35;1.80;99.90
62991;DHT22;49084;48.204;16.202;2022-12-22T12:50:51;1.90;99.90
62991;DHT22;49084;48.204;16.202;2022-12-22T12:53:18;2.00;99.90
62991;DHT22;49084;48.204;16.202;2022-12-22T13:03:51;2.60;99.90
62991;DHT22;49084;48.204;16.202;2022-12-22T13:11:41;3.10;99.90
62991;DHT22;49084;48.204;16.202;2022-12-22T13:14:07;3.10;99.90
62991;DHT22;49084;48.204;16.202;2022-12-22T13:16:36;3.10;99.90
62991;DHT22;49084;48.204;16.202;2022-12-22T13:19:11;3.00;99.90
62991;DHT22;49084;48.204;16.202;2022-12-22T13:21:44;3.00;99.90
62991;DHT22;49084;48.204;16.202;2022-12-22T13:26:36;2.90;99.90
62991;DHT22;49084;48.204;16.202;2022-12-22T13:31:42;2.80;99.90
62991;DHT22;49084;48.204;16.202;2022-12-22T13:36:50;2.80;99.90
62991;DHT22;49084;48.204;16.202;2022-12-22T13:39:18;2.90;99.90
62991;DHT22;49084;48.204;16.202;2022-12-22T13:41:47;3.10;99.90
62991;DHT22;49084;48.204;16.202;2022-12-22T13:44:33;3.20;99.90
62991;DHT22;49084;48.204;16.202;2022-12-22T13:47:06;3.20;99.90
62991;DHT22;49084;48.204;16.202;2022-12-22T13:49:35;3.10;99.90
62991;DHT22;49084;48.204;16.202;2022-12-22T13:52:01;2.90;99.90
62991;DHT22;49084;48.204;16.202;2022-12-22T13:54:35;2.70;99.90
62991;DHT22;49084;48.204;16.202;2022-12-22T13:57:03;2.60;99.90
62991;DHT22;49084;48.204;16.202;2022-12-22T13:59:40;2.50;99.90
62991;DHT22;49084;48.204;16.202;2022-12-22T14:04:40;2.30;99.90
62991;DHT22;49084;48.204;16.202;2022-12-22T14:07:24;2.20;99.90
62991;DHT22;49084;48.204;16.202;2022-12-22T14:09:54;2.10;99.90
62991;DHT22;49084;48.204;16.202;2022-12-22T14:12:26;2.00;99.90
62991;DHT22;49084;48.204;16.202;2022-12-22T14:14:53;1.90;99.90
62991;DHT22;49084;48.204;16.202;2022-12-22T14:17:26;1.80;99.90
62991;DHT22;49084;48.204;16.202;2022-12-22T14:25:15;1.80;99.90
62991;DHT22;49084;48.204;16.202;2022-12-22T14:27:44;2.40;99.90
62991;DHT22;49084;48.204;16.202;2022-12-22T14:30:16;2.10;99.90
62991;DHT22;49084;48.204;16.202;2022-12-22T14:32:47;1.60;99.90
62991;DHT22;49084;48.204;16.202;2022-12-22T14:40:28;1.60;99.90
62991;DHT22;49084;48.204;16.202;2022-12-22T14:42:58;1.50;99.90
62991;DHT22;49084;48.204;16.202;2022-12-22T14:45:24;1.50;99.90
62991;DHT22;49084;48.204;16.202;2022-12-22T14:47:52;1.50;99.90
62991;DHT22;49084;48.204;16.202;2022-12-22T14:50:23;1.50;99.90
62991;DHT22;49084;48.204;16.202;2022-12-22T14:55:56;1.50;99.90
62991;DHT22;49084;48.204;16.202;2022-12-22T14:58:33;1.60;99.90
62991;DHT22;49084;48.204;16.202;2022-12-22T15:01:18;1.50;99.90
62991;DHT22;49084;48.204;16.202;2022-12-22T15:08:53;1.60;99.90
62991;DHT22;49084;48.204;16.202;2022-12-22T15:11:39;1.60;99.90
62991;DHT22;49084;48.204;16.202;2022-12-22T15:14:10;1.60;99.90
62991;DHT22;49084;48.204;16.202;2022-12-22T15:19:14;1.60;99.90
62991;DHT22;49084;48.204;16.202;2022-12-22T15:21:43;1.20;99.90
62991;DHT22;49084;48.204;16.202;2022-12-22T15:24:14;1.60;99.90
62991;DHT22;49084;48.204;16.202;2022-12-22T15:26:40;1.50;99.90
62991;DHT22;49084;48.204;16.202;2022-12-22T15:29:06;1.60;99.90
62991;DHT22;49084;48.204;16.202;2022-12-22T15:31:32;1.60;99.90
62991;DHT22;49084;48.204;16.202;2022-12-22T15:34:00;1.60;99.90
62991;DHT22;49084;48.204;16.202;2022-12-22T15:36:27;1.70;99.90
62991;DHT22;49084;48.204;16.202;2022-12-22T15:38:53;1.70;99.90
62991;DHT22;49084;48.204;16.202;2022-12-22T15:41:18;1.70;99.90
62991;DHT22;49084;48.204;16.202;2022-12-22T15:43:44;1.70;99.90
62991;DHT22;49084;48.204;16.202;2022-12-22T15:46:13;1.70;99.90
62991;DHT22;49084;48.204;16.202;2022-12-22T15:48:40;1.70;99.90
62991;DHT22;49084;48.204;16.202;2022-12-22T15:51:11;1.70;99.90
62991;DHT22;49084;48.204;16.202;2022-12-22T15:53:38;1.70;99.90
62991;DHT22;49084;48.204;16.202;2022-12-22T15:56:04;1.70;99.90
62991;DHT22;49084;48.204;16.202;2022-12-22T15:58:33;1.70;99.90
62991;DHT22;49084;48.204;16.202;2022-12-22T16:01:00;1.60;99.90
62991;DHT22;49084;48.204;16.202;2022-12-22T16:03:26;1.60;99.90
62991;DHT22;49084;48.204;16.202;2022-12-22T16:05:51;1.60;99.90
62991;DHT22;49084;48.204;16.202;2022-12-22T16:08:31;1.50;99.90
62991;DHT22;49084;48.204;16.202;2022-12-22T16:10:57;1.50;99.90
62991;DHT22;49084;48.204;16.202;2022-12-22T16:13:28;1.50;99.90
62991;DHT22;49084;48.204;16.202;2022-12-22T16:15:56;1.40;99.90
62991;DHT22;49084;48.204;16.202;2022-12-22T16:18:22;1.40;99.90
62991;DHT22;49084;48.204;16.202;2022-12-22T16:20:47;1.40;99.90
62991;DHT22;49084;48.204;16.202;2022-12-22T16:23:20;1.30;99.90
62991;DHT22;49084;48.204;16.202;2022-12-22T16:25:46;1.30;99.90
62991;DHT22;49084;48.204;16.202;2022-12-22T16:28:31;1.30;99.90
62991;DHT22;49084;48.204;16.202;2022-12-22T16:30:58;1.20;99.90
62991;DHT22;49084;48.204;16.202;2022-12-22T16:33:24;1.20;99.90
62991;DHT22;49084;48.204;16.202;2022-12-22T16:35:49;1.20;99.90
62991;DHT22;49084;48.204;16.202;2022-12-22T16:38:15;1.10;99.90
62991;DHT22;49084;48.204;16.202;2022-12-22T16:40:48;1.10;99.90
62991;DHT22;49084;48.204;16.202;2022-12-22T16:43:52;1.10;99.90
62991;DHT22;49084;48.204;16.202;2022-12-22T16:46:21;1.10;99.90
62991;DHT22;49084;48.204;16.202;2022-12-22T16:48:48;1.00;99.90
62991;DHT22;49084;48.204;16.202;2022-12-22T16:51:24;1.00;99.90
62991;DHT22;49084;48.204;16.202;2022-12-22T16:53:51;1.00;99.90
62991;DHT22;49084;48.204;16.202;2022-12-22T16:56:19;1.00;99.90
62991;DHT22;49084;48.204;16.202;2022-12-22T16:58:46;1.00;99.90
62991;DHT22;49084;48.204;16.202;2022-12-22T17:03:55;0.90;99.90
62991;DHT22;49084;48.204;16.202;2022-12-22T17:06:22;0.90;99.90
62991;DHT22;49084;48.204;16.202;2022-12-22T17:08:48;0.90;99.90
62991;DHT22;49084;48.204;16.202;2022-12-22T17:11:24;0.90;99.90
62991;DHT22;49084;48.204;16.202;2022-12-22T17:13:55;0.90;99.90
62991;DHT22;49084;48.204;16.202;2022-12-22T17:16:23;0.80;99.90
62991;DHT22;49084;48.204;16.202;2022-12-22T17:18:49;0.80;99.90
62991;DHT22;49084;48.204;16.202;2022-12-22T17:21:16;0.80;99.90
62991;DHT22;49084;48.204;16.202;2022-12-22T17:23:47;0.80;99.90
62991;DHT22;49084;48.204;16.202;2022-12-22T17:26:17;0.80;99.90
62991;DHT22;49084;48.204;16.202;2022-12-22T17:28:44;0.80;99.90
62991;DHT22;49084;48.204;16.202;2022-12-22T17:31:15;0.80;99.90
62991;DHT22;49084;48.204;16.202;2022-12-22T17:33:41;0.80;99.90
62991;DHT22;49084;48.204;16.202;2022-12-22T17:38:42;0.80;99.90
62991;DHT22;49084;48.204;16.202;2022-12-22T17:41:12;0.80;99.90
62991;DHT22;49084;48.204;16.202;2022-12-22T17:43:40;0.90;99.90
62991;DHT22;49084;48.204;16.202;2022-12-22T17:46:12;0.90;99.90
62991;DHT22;49084;48.204;16.202;2022-12-22T17:48:39;0.90;99.90
62991;DHT22;49084;48.204;16.202;2022-12-22T17:51:05;0.90;99.90
62991;DHT22;49084;48.204;16.202;2022-12-22T17:53:34;0.90;99.90
62991;DHT22;49084;48.204;16.202;2022-12-22T17:55:59;0.90;99.90
62991;DHT22;49084;48.204;16.202;2022-12-22T17:58:27;0.90;99.90
62991;DHT22;49084;48.204;16.202;2022-12-22T18:00:52;0.90;99.90
62991;DHT22;49084;48.204;16.202;2022-12-22T18:03:18;0.90;99.90
62991;DHT22;49084;48.204;16.202;2022-12-22T18:05:45;1.00;99.90
62991;DHT22;49084;48.204;16.202;2022-12-22T18:08:15;1.10;99.90
62991;DHT22;49084;48.204;16.202;2022-12-22T18:10:42;1.20;99.90
62991;DHT22;49084;48.204;16.202;2022-12-22T18:13:21;1.30;99.90
62991;DHT22;49084;48.204;16.202;2022-12-22T18:15:50;1.40;99.90
62991;DHT22;49084;48.204;16.202;2022-12-22T18:18:17;1.40;99.90
62991;DHT22;49084;48.204;16.202;2022-12-22T18:20:44;1.50;99.90
62991;DHT22;49084;48.204;16.202;2022-12-22T18:23:17;1.60;99.90